KRWI/RWI METAR and TAF weather

Enter ICAO airport designator
Station Type Date Time Source
KRWI METAR 2019/08/23 14:53 UTC NOAA

KRWI 231453Z AUTO 21007KT 10SM CLR 29/24 A3002 RMK AO2 SLP165 T02890239 58001


Station Type Date Time Source
KRWI Decoded METAR 2019/08/23 14:53 UTC NOAA

Station name not available
Aug 23, 2019 - 10:53 AM EDT / 2019.08.23 1453 UTC
Wind: from the SSW (210 degrees) at 8 MPH (7 KT):0
Visibility: 10 mile(s):0
Sky conditions: clear
Temperature: 84.0 F (28.9 C)
Dew Point: 75.0 F (23.9 C)
Relative Humidity: 74%
Pressure (altimeter): 30.02 in. Hg (1016 hPa)
Pressure tendency: 0.00 inches (0.1 hPa) lower than three hours ago
ob: KRWI 231453Z AUTO 21007KT 10SM CLR 29/24 A3002 RMK AO2 SLP165 T02890239 58001
cycle: 15

Station Type Date Time Source
KRWI TAF 2019/08/23 12:22 UTC NOAA

TAF KRWI 231120Z 2312/2412 21006KT P6SM BKN250
FM231900 24008KT P6SM VCTS SCT040CB BKN120
TEMPO 2321/2324 VRB20G35KT 1 1/2SM +TSRA BKN025CB
FM240000 01006KT 4SM -TSRA BR OVC015CB
FM240300 04006KT 1 1/2SM -SHRA BR OVC004

Example: see airport list